Everton, Missouri
Current Conditions -  °F | °C
As of 2:52 AM on Sunday 26 Oct 2014 (Local Time) from KSGF Reporting Station
Haze Haze  
Wind Chill: 58°   Ceiling: Unl
Heat Index: 58°   Visibility: 4mi
Dew Point: 56°   Wind: 6mph
Humidity: 93%   Direction: 150°SSE
Pressure: 30"   Gusts: NA
Location:  37.34°N, 93.7°W
Report Text: KSGF 260752Z 15005KT 4SM BR CLR 14/13 A3000 RMK AO2 SLP150 T01440133
Loading
Personal Weather Stations






























Interactive Weather Map
Tropical Storm Tracking
New forecast layout! Learn more

10-Day Weather Forecast

Advertisements
Track Severe Weather on mobile